createdAt,value
2023-02-17T00:00:47.061Z,59.46
2023-02-17T00:03:19.038Z,59.55
2023-02-17T00:05:51.388Z,59.67
2023-02-17T00:08:23.339Z,59.63
2023-02-17T00:11:00.023Z,59.74
2023-02-17T00:13:32.060Z,59.82
2023-02-17T00:16:16.273Z,59.70
2023-02-17T00:19:02.674Z,59.25
2023-02-17T00:21:34.791Z,59.60
2023-02-17T00:24:07.385Z,59.87
2023-02-17T00:26:39.439Z,59.78
2023-02-17T00:29:11.497Z,59.84
2023-02-17T00:31:44.369Z,59.71
2023-02-17T00:34:18.596Z,59.99
2023-02-17T00:36:50.708Z,60.20
2023-02-17T00:39:23.023Z,60.20
2023-02-17T00:41:55.020Z,60.43
2023-02-17T00:44:27.277Z,60.41
2023-02-17T00:46:59.224Z,60.29
2023-02-17T00:49:31.139Z,59.99
2023-02-17T00:52:03.536Z,59.85
2023-02-17T00:54:36.382Z,59.80
2023-02-17T00:57:08.492Z,60.33
2023-02-17T00:59:40.722Z,59.76
2023-02-17T01:02:12.749Z,59.64
2023-02-17T01:04:44.846Z,59.61
2023-02-17T01:07:18.565Z,59.51
2023-02-17T01:09:51.741Z,59.48
2023-02-17T01:12:23.885Z,59.66
2023-02-17T01:14:56.199Z,60.03
2023-02-17T01:17:28.739Z,60.13
2023-02-17T01:20:01.405Z,60.26
2023-02-17T01:22:33.697Z,60.34
2023-02-17T01:25:06.133Z,60.04
2023-02-17T01:27:38.162Z,60.23
2023-02-17T01:30:10.619Z,60.07
2023-02-17T01:32:42.662Z,60.39
2023-02-17T01:35:14.625Z,60.28
2023-02-17T01:37:46.826Z,60.15
2023-02-17T01:40:21.361Z,60.31
2023-02-17T01:42:53.522Z,60.21
2023-02-17T01:45:31.401Z,60.08
2023-02-17T01:48:12.385Z,59.83
2023-02-17T01:50:53.030Z,59.60
2023-02-17T01:53:27.767Z,59.65
2023-02-17T01:56:00.084Z,59.42
2023-02-17T01:58:35.057Z,59.64
2023-02-17T02:01:08.294Z,59.91
2023-02-17T02:03:41.205Z,60.00
2023-02-17T02:06:17.163Z,59.82
2023-02-17T02:08:54.915Z,60.05
2023-02-17T02:11:27.076Z,60.21
2023-02-17T02:14:00.629Z,60.21
2023-02-17T02:16:36.286Z,60.24
2023-02-17T02:19:30.498Z,60.32
2023-02-17T02:22:39.541Z,60.27
2023-02-17T02:25:43.125Z,60.22
2023-02-17T02:28:40.473Z,60.25
2023-02-17T02:31:37.642Z,60.17
2023-02-17T02:34:19.316Z,60.50
2023-02-17T02:37:09.288Z,60.15
2023-02-17T02:39:44.543Z,60.38
2023-02-17T02:42:19.398Z,60.49
2023-02-17T02:44:53.320Z,60.48
2023-02-17T02:47:45.545Z,60.67
2023-02-17T02:50:28.464Z,60.74
2023-02-17T02:53:12.078Z,60.81
2023-02-17T02:55:47.247Z,60.88
2023-02-17T02:58:28.733Z,60.92
2023-02-17T03:01:03.703Z,60.76
2023-02-17T03:03:39.342Z,60.81
2023-02-17T03:06:19.828Z,61.02
2023-02-17T03:08:55.210Z,60.83
2023-02-17T03:11:33.625Z,60.83
2023-02-17T03:14:10.134Z,60.94
2023-02-17T03:16:43.844Z,60.97
2023-02-17T03:19:18.432Z,60.88
2023-02-17T03:22:00.755Z,61.04
2023-02-17T03:24:32.700Z,60.86
2023-02-17T03:27:05.355Z,60.76
2023-02-17T03:29:37.745Z,60.77
2023-02-17T03:32:10.259Z,60.99
2023-02-17T03:34:42.701Z,61.13
2023-02-17T03:37:14.842Z,60.97
2023-02-17T03:39:47.401Z,61.05
2023-02-17T03:42:19.641Z,61.16
2023-02-17T03:44:51.824Z,61.41
2023-02-17T03:47:24.314Z,61.42
2023-02-17T03:49:57.002Z,61.58
2023-02-17T03:52:29.308Z,61.61
2023-02-17T03:55:01.799Z,61.53
2023-02-17T03:57:34.927Z,61.33
2023-02-17T04:00:09.531Z,61.31
2023-02-17T04:02:47.961Z,61.36
2023-02-17T04:05:20.360Z,61.57
2023-02-17T04:07:52.801Z,61.72
2023-02-17T04:10:25.238Z,61.82
2023-02-17T04:12:57.549Z,61.62
2023-02-17T04:15:30.415Z,61.74
2023-02-17T04:18:02.986Z,61.41
2023-02-17T04:20:35.618Z,61.16
2023-02-17T04:23:07.971Z,61.33
2023-02-17T04:25:40.622Z,61.70
2023-02-17T04:28:13.940Z,61.41
2023-02-17T04:30:48.481Z,61.39
2023-02-17T04:33:21.447Z,61.51
2023-02-17T04:35:56.437Z,61.36
2023-02-17T04:38:31.206Z,61.22
2023-02-17T04:41:03.794Z,61.50
2023-02-17T04:43:36.103Z,61.68
2023-02-17T04:46:08.889Z,61.51
2023-02-17T04:48:42.557Z,61.60
2023-02-17T04:51:15.316Z,61.57
2023-02-17T04:53:48.632Z,61.69
2023-02-17T04:56:21.961Z,61.62
2023-02-17T04:58:54.502Z,61.80
2023-02-17T05:01:27.360Z,62.05
2023-02-17T05:04:01.110Z,61.95
2023-02-17T05:06:34.778Z,62.14
2023-02-17T05:09:07.389Z,62.04
2023-02-17T05:11:40.569Z,61.62
2023-02-17T05:14:12.845Z,61.84
2023-02-17T05:16:45.020Z,61.81
2023-02-17T05:19:17.856Z,61.72
2023-02-17T05:21:49.801Z,61.72
2023-02-17T05:24:22.074Z,62.06
2023-02-17T05:26:54.233Z,62.02
2023-02-17T05:29:26.297Z,61.83
2023-02-17T05:31:59.173Z,61.72
2023-02-17T05:34:33.104Z,61.69
2023-02-17T05:37:06.293Z,61.87
2023-02-17T05:39:38.648Z,61.84
2023-02-17T05:42:11.533Z,61.91
2023-02-17T05:44:44.355Z,60.87
2023-02-17T05:47:17.372Z,60.92
2023-02-17T05:49:49.624Z,60.51
2023-02-17T05:52:21.966Z,60.69
2023-02-17T05:54:54.585Z,60.96
2023-02-17T05:57:27.760Z,61.20
2023-02-17T06:00:00.545Z,60.89
2023-02-17T06:02:33.475Z,61.32
2023-02-17T06:05:05.440Z,60.78
2023-02-17T06:07:37.879Z,60.57
2023-02-17T06:10:11.597Z,60.53
2023-02-17T06:12:44.325Z,60.74
2023-02-17T06:15:16.591Z,61.21
2023-02-17T06:17:49.054Z,60.94
2023-02-17T06:20:22.066Z,60.93
2023-02-17T06:22:56.297Z,60.72
2023-02-17T06:25:28.727Z,60.22
2023-02-17T06:28:00.935Z,60.26
2023-02-17T06:30:33.959Z,60.27
2023-02-17T06:33:07.177Z,60.00
2023-02-17T06:35:40.537Z,59.74
2023-02-17T06:38:13.701Z,59.74
2023-02-17T06:40:46.376Z,59.51
2023-02-17T06:43:18.979Z,59.56
2023-02-17T06:45:51.991Z,59.76
2023-02-17T06:48:24.589Z,59.56
2023-02-17T06:50:57.495Z,59.32
2023-02-17T06:53:29.822Z,59.19
2023-02-17T06:56:02.595Z,58.95
2023-02-17T06:58:36.393Z,58.74
2023-02-17T07:01:10.468Z,58.73
2023-02-17T07:03:43.796Z,58.97
2023-02-17T07:06:18.219Z,59.43
2023-02-17T07:08:51.264Z,59.04
2023-02-17T07:11:23.996Z,58.92
2023-02-17T07:13:56.131Z,59.11
2023-02-17T07:16:28.627Z,59.16
2023-02-17T07:19:01.528Z,58.46
2023-02-17T07:21:34.505Z,58.28
2023-02-17T07:24:07.690Z,58.38
2023-02-17T07:26:42.095Z,58.63
2023-02-17T07:29:14.513Z,58.86
2023-02-17T07:31:47.178Z,58.88
2023-02-17T07:34:20.396Z,58.68
2023-02-17T07:36:53.749Z,58.31
2023-02-17T07:39:27.698Z,58.61
2023-02-17T07:42:01.261Z,59.18
2023-02-17T07:44:34.368Z,59.26
2023-02-17T07:47:06.636Z,58.87
2023-02-17T07:49:39.267Z,58.41
2023-02-17T07:52:11.940Z,58.64
2023-02-17T07:54:44.110Z,58.63
2023-02-17T07:57:16.401Z,59.12
2023-02-17T07:59:49.227Z,58.95
2023-02-17T08:02:22.023Z,58.52
2023-02-17T08:04:54.876Z,58.81
2023-02-17T08:07:27.752Z,58.33
2023-02-17T08:10:18.015Z,58.72
2023-02-17T08:12:52.221Z,58.61
2023-02-17T08:15:24.761Z,58.80
2023-02-17T08:17:59.092Z,58.34
2023-02-17T08:20:33.580Z,58.46
2023-02-17T08:23:06.227Z,58.30
2023-02-17T08:25:38.780Z,57.13
2023-02-17T08:28:12.755Z,56.43
2023-02-17T08:30:45.366Z,56.03
2023-02-17T08:33:19.100Z,55.19
2023-02-17T08:35:51.185Z,54.75
2023-02-17T08:38:23.445Z,54.46
2023-02-17T08:40:55.465Z,54.35
2023-02-17T08:43:28.077Z,53.45
2023-02-17T08:46:00.802Z,53.77
2023-02-17T08:48:34.827Z,53.70
2023-02-17T08:51:08.490Z,53.44
2023-02-17T08:53:42.150Z,52.93
2023-02-17T08:56:18.014Z,52.93
2023-02-17T08:58:50.588Z,52.41
2023-02-17T09:01:23.974Z,52.82
2023-02-17T09:03:57.730Z,52.54
2023-02-17T09:06:38.347Z,51.71
2023-02-17T09:09:13.277Z,52.16
2023-02-17T09:11:47.284Z,51.62
2023-02-17T09:14:19.141Z,52.22
2023-02-17T09:16:55.529Z,53.22
2023-02-17T09:19:31.435Z,52.77
2023-02-17T09:22:04.694Z,52.75
2023-02-17T09:24:40.026Z,52.93
2023-02-17T09:27:12.823Z,53.19
2023-02-17T09:29:45.826Z,53.38
2023-02-17T09:32:18.502Z,54.23
2023-02-17T09:34:51.670Z,54.13
2023-02-17T09:37:24.984Z,54.13
2023-02-17T09:39:58.529Z,53.53
2023-02-17T09:42:33.266Z,53.59
2023-02-17T09:45:23.821Z,53.68
2023-02-17T09:47:59.288Z,54.17
2023-02-17T09:51:01.329Z,54.42
2023-02-17T09:53:54.327Z,54.86
2023-02-17T09:56:32.565Z,55.59
2023-02-17T09:59:19.016Z,55.93
2023-02-17T10:01:53.478Z,55.67
2023-02-17T10:04:31.412Z,55.36
2023-02-17T10:07:18.920Z,55.22
2023-02-17T10:09:57.177Z,55.14
2023-02-17T10:12:36.965Z,55.22
2023-02-17T10:15:24.361Z,55.74
2023-02-17T10:18:11.332Z,55.93
2023-02-17T10:20:55.923Z,56.00
2023-02-17T10:23:30.052Z,56.15
2023-02-17T10:26:36.376Z,55.97
2023-02-17T10:29:29.327Z,55.37
2023-02-17T10:32:19.841Z,55.60
2023-02-17T10:35:12.690Z,54.93
2023-02-17T10:37:55.653Z,54.99
2023-02-17T10:40:30.388Z,55.29
2023-02-17T10:43:07.713Z,54.99
2023-02-17T10:45:49.127Z,54.68
2023-02-17T10:48:26.869Z,54.35
2023-02-17T10:51:02.134Z,54.18
2023-02-17T10:53:37.718Z,54.19
2023-02-17T10:56:25.018Z,54.07
2023-02-17T10:59:09.295Z,54.11
2023-02-17T11:01:42.777Z,54.79
2023-02-17T11:04:16.311Z,54.81
2023-02-17T11:06:53.473Z,55.53
2023-02-17T11:09:34.150Z,55.44
2023-02-17T11:12:09.266Z,55.25
2023-02-17T11:14:47.464Z,55.35
2023-02-17T11:17:31.783Z,55.97
2023-02-17T11:20:12.889Z,55.79
2023-02-17T11:22:50.916Z,55.44
2023-02-17T11:25:33.813Z,55.93
2023-02-17T11:28:09.347Z,56.21
2023-02-17T11:30:44.284Z,56.03
2023-02-17T11:33:24.943Z,55.91
2023-02-17T11:35:58.119Z,56.10
2023-02-17T11:38:35.918Z,55.98
2023-02-17T11:41:09.582Z,56.27
2023-02-17T11:43:45.190Z,56.32
2023-02-17T11:46:20.775Z,56.02
2023-02-17T11:49:14.077Z,55.92
2023-02-17T11:52:01.115Z,55.71
2023-02-17T11:54:45.944Z,54.73
2023-02-17T11:57:37.326Z,54.62
2023-02-17T12:00:15.988Z,54.57
2023-02-17T12:03:19.675Z,54.59
2023-02-17T12:06:09.711Z,54.85
2023-02-17T12:08:59.757Z,55.40
2023-02-17T12:11:59.695Z,56.15
2023-02-17T12:15:00.395Z,56.54
2023-02-17T12:17:42.536Z,56.00
2023-02-17T12:20:23.531Z,55.42
2023-02-17T12:23:18.130Z,55.42
2023-02-17T12:26:02.150Z,54.83
2023-02-17T12:28:40.072Z,54.57
2023-02-17T12:31:40.934Z,55.17
2023-02-17T12:34:37.058Z,55.47
2023-02-17T12:37:20.959Z,55.51
2023-02-17T12:40:05.090Z,55.59
2023-02-17T12:42:43.362Z,55.66
2023-02-17T12:45:18.411Z,56.39
2023-02-17T12:47:55.483Z,56.82
2023-02-17T12:50:30.423Z,57.31
2023-02-17T12:53:06.226Z,57.38
2023-02-17T12:55:41.396Z,58.08
2023-02-17T12:58:30.551Z,58.47
2023-02-17T13:01:09.705Z,58.47
2023-02-17T13:03:41.831Z,58.21
2023-02-17T13:06:28.840Z,58.39
2023-02-17T13:09:20.133Z,58.49
2023-02-17T13:11:52.829Z,58.70
2023-02-17T13:14:28.411Z,58.77
2023-02-17T13:17:01.142Z,58.81
2023-02-17T13:19:36.779Z,58.53
2023-02-17T13:22:09.531Z,58.21
2023-02-17T13:24:44.673Z,57.91
2023-02-17T13:27:25.859Z,58.12
2023-02-17T13:30:10.451Z,58.32
2023-02-17T13:32:42.726Z,58.33
2023-02-17T13:35:27.806Z,58.31
2023-02-17T13:38:00.572Z,58.26
2023-02-17T13:40:35.776Z,57.93
2023-02-17T13:43:20.013Z,58.10
2023-02-17T13:46:01.954Z,57.77
2023-02-17T13:48:36.944Z,57.83
2023-02-17T13:51:12.214Z,57.77
2023-02-17T13:53:45.978Z,57.40
2023-02-17T13:56:30.215Z,57.69
2023-02-17T13:59:11.924Z,57.87
2023-02-17T14:01:45.197Z,58.07
2023-02-17T14:04:34.129Z,57.36
2023-02-17T14:07:06.873Z,57.42
2023-02-17T14:09:39.528Z,57.58
2023-02-17T14:12:15.044Z,57.73
2023-02-17T14:14:47.654Z,58.03
2023-02-17T14:17:33.781Z,58.54
2023-02-17T14:20:07.136Z,58.34
2023-02-17T14:22:39.480Z,58.28
2023-02-17T14:25:13.884Z,58.27
2023-02-17T14:27:51.797Z,58.20
2023-02-17T14:30:33.355Z,58.45
2023-02-17T14:33:20.617Z,58.64
2023-02-17T14:36:03.036Z,58.81
2023-02-17T14:38:39.030Z,58.67
2023-02-17T14:41:12.367Z,59.04
2023-02-17T14:43:44.807Z,59.05
2023-02-17T14:46:20.380Z,59.21
2023-02-17T14:48:53.648Z,59.20
2023-02-17T14:51:28.682Z,59.31
2023-02-17T14:54:16.942Z,59.29
2023-02-17T14:57:09.722Z,59.34
2023-02-17T14:59:42.379Z,59.81
2023-02-17T15:02:22.954Z,60.06
2023-02-17T15:04:55.634Z,59.76
2023-02-17T15:07:29.307Z,59.69
2023-02-17T15:10:02.227Z,59.88
2023-02-17T15:12:34.647Z,60.23
2023-02-17T15:15:07.518Z,60.16
2023-02-17T15:17:39.509Z,60.18
2023-02-17T15:20:13.998Z,60.15
2023-02-17T15:22:47.363Z,60.28
2023-02-17T15:25:23.518Z,60.26
2023-02-17T15:27:56.914Z,59.96
2023-02-17T15:30:29.678Z,60.03
2023-02-17T15:33:04.194Z,60.03
2023-02-17T15:35:36.686Z,59.84
2023-02-17T15:38:14.611Z,60.18
2023-02-17T15:40:46.729Z,60.26
2023-02-17T15:43:21.654Z,60.35
2023-02-17T15:45:54.755Z,59.89
2023-02-17T15:48:31.170Z,59.92
2023-02-17T15:51:04.447Z,60.28
2023-02-17T15:53:37.642Z,60.30
2023-02-17T15:56:21.647Z,60.42
2023-02-17T15:58:55.765Z,60.87
2023-02-17T16:01:31.159Z,60.87
2023-02-17T16:04:03.458Z,61.39
2023-02-17T16:06:35.838Z,61.96
2023-02-17T16:09:08.585Z,62.25
2023-02-17T16:11:57.062Z,62.44
2023-02-17T16:14:35.908Z,62.79
2023-02-17T16:17:14.038Z,62.96
2023-02-17T16:19:46.574Z,63.17
2023-02-17T16:22:19.318Z,63.18
2023-02-17T16:24:51.666Z,63.48
2023-02-17T16:27:25.234Z,63.67
2023-02-17T16:29:58.292Z,63.61
2023-02-17T16:32:33.262Z,64.00
2023-02-17T16:35:05.540Z,63.92
2023-02-17T16:37:38.420Z,64.03
2023-02-17T16:40:19.395Z,64.06
2023-02-17T16:42:51.800Z,64.32
2023-02-17T16:45:26.796Z,64.40
2023-02-17T16:48:03.129Z,64.63
2023-02-17T16:50:36.954Z,64.94
2023-02-17T16:53:10.914Z,65.09
2023-02-17T16:55:44.439Z,65.17
2023-02-17T16:58:23.100Z,65.20
2023-02-17T17:00:57.276Z,65.37
2023-02-17T17:03:30.132Z,65.35
2023-02-17T17:06:06.592Z,65.58
2023-02-17T17:08:39.969Z,65.57
2023-02-17T17:11:21.096Z,65.77
2023-02-17T17:13:57.688Z,65.79
2023-02-17T17:16:34.211Z,65.91
2023-02-17T17:19:06.986Z,65.91
2023-02-17T17:21:39.720Z,65.79
2023-02-17T17:24:11.985Z,65.41
2023-02-17T17:26:46.714Z,65.43
2023-02-17T17:29:21.738Z,65.49
2023-02-17T17:31:54.174Z,65.69
2023-02-17T17:34:27.568Z,65.64
2023-02-17T17:36:59.837Z,65.69
2023-02-17T17:39:32.219Z,65.65
2023-02-17T17:42:04.821Z,65.69
2023-02-17T17:44:37.334Z,66.16
2023-02-17T17:47:18.308Z,65.91
2023-02-17T17:49:47.460Z,65.85
2023-02-17T17:52:20.632Z,65.68
2023-02-17T17:54:53.071Z,65.61
2023-02-17T17:57:25.529Z,65.54
2023-02-17T17:59:58.388Z,65.39
2023-02-17T18:02:31.706Z,65.46
2023-02-17T18:05:04.031Z,65.52
2023-02-17T18:07:38.440Z,65.43
2023-02-17T18:10:13.223Z,65.79
2023-02-17T18:12:48.876Z,65.95
2023-02-17T18:15:21.558Z,66.02
2023-02-17T18:17:53.771Z,66.21
2023-02-17T18:20:26.068Z,66.21
2023-02-17T18:22:58.238Z,66.07
2023-02-17T18:25:30.466Z,66.31
2023-02-17T18:28:02.632Z,66.23
2023-02-17T18:30:34.875Z,66.14
2023-02-17T18:33:07.062Z,66.32
2023-02-17T18:35:40.359Z,66.34
2023-02-17T18:38:13.152Z,66.40
2023-02-17T18:40:45.951Z,66.68
2023-02-17T18:43:18.483Z,66.62
2023-02-17T18:45:51.379Z,66.61
2023-02-17T18:48:23.897Z,66.50
2023-02-17T18:50:55.778Z,66.52
2023-02-17T18:53:27.986Z,66.43
2023-02-17T18:56:00.542Z,66.85
2023-02-17T18:58:32.457Z,66.72
2023-02-17T19:01:04.806Z,66.77
2023-02-17T19:03:36.807Z,66.65
2023-02-17T19:06:15.062Z,66.90
2023-02-17T19:08:48.750Z,66.57
2023-02-17T19:11:22.602Z,66.80
2023-02-17T19:13:55.452Z,66.77
2023-02-17T19:16:29.797Z,67.28
2023-02-17T19:19:02.651Z,67.44
2023-02-17T19:21:36.362Z,67.30
2023-02-17T19:24:09.691Z,67.42
2023-02-17T19:26:43.023Z,67.26
2023-02-17T19:29:15.682Z,67.11
2023-02-17T19:31:47.920Z,67.21
2023-02-17T19:34:21.026Z,67.16
2023-02-17T19:36:53.513Z,67.32
2023-02-17T19:39:25.781Z,67.10
2023-02-17T19:41:58.340Z,67.36
2023-02-17T19:44:34.142Z,67.67
2023-02-17T19:47:06.310Z,67.32
2023-02-17T19:49:39.588Z,67.40
2023-02-17T19:52:12.244Z,67.29
2023-02-17T19:54:45.442Z,67.60
2023-02-17T19:57:18.479Z,67.86
2023-02-17T19:59:50.507Z,67.91
2023-02-17T20:02:22.549Z,67.90
2023-02-17T20:04:54.633Z,67.87
2023-02-17T20:07:26.829Z,67.84
2023-02-17T20:09:59.045Z,67.90
2023-02-17T20:12:32.876Z,67.95
2023-02-17T20:15:05.475Z,67.99
2023-02-17T20:17:37.624Z,68.09
2023-02-17T20:20:12.415Z,68.11
2023-02-17T20:22:44.605Z,68.09
2023-02-17T20:25:16.641Z,68.24
2023-02-17T20:27:48.685Z,68.24
2023-02-17T20:30:20.854Z,68.36
2023-02-17T20:32:52.815Z,68.26
2023-02-17T20:35:24.898Z,68.27
2023-02-17T20:37:57.449Z,68.23
2023-02-17T20:40:29.948Z,68.23
2023-02-17T20:43:02.664Z,68.17
2023-02-17T20:45:34.753Z,68.10
2023-02-17T20:48:07.417Z,67.91
2023-02-17T20:50:39.469Z,67.53
2023-02-17T20:53:12.332Z,67.56
2023-02-17T20:55:44.182Z,67.56
2023-02-17T20:58:16.469Z,67.38
2023-02-17T21:00:48.632Z,67.20
2023-02-17T21:03:20.925Z,67.21
2023-02-17T21:05:52.814Z,67.34
2023-02-17T21:08:25.346Z,67.51
2023-02-17T21:10:57.534Z,67.67
2023-02-17T21:13:29.922Z,67.84
2023-02-17T21:16:02.122Z,67.90
2023-02-17T21:18:34.096Z,68.05
2023-02-17T21:21:06.240Z,68.05
2023-02-17T21:23:38.663Z,68.16
2023-02-17T21:26:12.826Z,67.98
2023-02-17T21:28:45.633Z,67.83
2023-02-17T21:31:18.606Z,67.57
2023-02-17T21:33:50.831Z,67.42
2023-02-17T21:36:23.004Z,67.43
2023-02-17T21:38:55.053Z,67.32
2023-02-17T21:41:29.079Z,67.21
2023-02-17T21:44:19.971Z,67.14
2023-02-17T21:46:53.823Z,67.17
2023-02-17T21:49:25.838Z,67.28
2023-02-17T21:51:58.013Z,67.25
2023-02-17T21:54:32.559Z,67.46
2023-02-17T21:57:05.588Z,67.54
2023-02-17T21:59:37.514Z,67.57
2023-02-17T22:02:11.148Z,67.70
2023-02-17T22:04:43.253Z,67.74
2023-02-17T22:07:15.276Z,67.68
2023-02-17T22:09:47.588Z,67.63
2023-02-17T22:12:19.678Z,67.80
2023-02-17T22:14:51.843Z,67.90
2023-02-17T22:17:23.913Z,67.99
2023-02-17T22:19:56.828Z,68.10
2023-02-17T22:22:29.266Z,68.22
2023-02-17T22:25:01.699Z,68.15
2023-02-17T22:27:34.958Z,68.12
2023-02-17T22:30:07.708Z,68.17
2023-02-17T22:32:41.456Z,68.29
2023-02-17T22:35:15.236Z,68.36
2023-02-17T22:37:47.621Z,68.37
2023-02-17T22:40:19.851Z,68.41
2023-02-17T22:42:52.004Z,68.48
2023-02-17T22:45:24.194Z,68.62
2023-02-17T22:47:56.435Z,68.58
2023-02-17T22:50:28.560Z,68.55
2023-02-17T22:53:00.613Z,68.62
2023-02-17T22:55:32.598Z,68.52
2023-02-17T22:58:04.683Z,68.60
2023-02-17T23:00:37.661Z,68.53
2023-02-17T23:03:09.975Z,68.76
2023-02-17T23:05:42.982Z,68.62
2023-02-17T23:08:15.501Z,68.73
2023-02-17T23:10:47.346Z,68.79
2023-02-17T23:13:19.489Z,68.70
2023-02-17T23:15:51.464Z,68.74
2023-02-17T23:18:23.773Z,68.72
2023-02-17T23:20:55.770Z,68.86
2023-02-17T23:23:28.839Z,68.80
2023-02-17T23:26:01.114Z,68.60
2023-02-17T23:28:35.591Z,68.62
2023-02-17T23:31:12.508Z,68.36
2023-02-17T23:33:44.647Z,68.38
2023-02-17T23:36:17.262Z,68.49
2023-02-17T23:38:49.505Z,68.41
2023-02-17T23:41:21.336Z,68.40
2023-02-17T23:43:53.648Z,68.41
2023-02-17T23:46:25.909Z,68.56
2023-02-17T23:48:58.047Z,68.60
2023-02-17T23:51:30.111Z,68.57
2023-02-17T23:54:02.033Z,68.63
2023-02-17T23:56:36.447Z,68.75
2023-02-17T23:59:08.505Z,68.61
